Time;durP1;ratioP1;P1;durP2;ratioP2;P2;SDS_P1;SDS_P2;PMS_P1;PMS_P2;Temp;Humidity;BMP_temperature;BMP_pressure;BME280_temperature;BME280_humidity;BME280_pressure;Samples;Min_cycle;Max_cycle;Signal;HPM_P1;HPM_P2
2022/07/22 00:00:20;;;;;;;6.25;1.75;;;;;;;;;;5040037;28;20215;-64
2022/07/22 00:02:46;;;;;;;9.30;1.33;;;;;;;;;;5041006;28;20266;-64
2022/07/22 00:05:11;;;;;;;7.80;1.58;;;;;;;;;;5039432;28;20609;-64
2022/07/22 00:07:37;;;;;;;7.78;1.40;;;;;;;;;;5031454;28;20218;-64
2022/07/22 00:10:03;;;;;;;13.05;2.50;;;;;;;;;;5008798;28;20226;-64
2022/07/22 00:12:29;;;;;;;8.05;1.60;;;;;;;;;;5020628;28;20354;-64
2022/07/22 00:14:54;;;;;;;9.38;1.80;;;;;;;;;;5021606;28;20326;-64
2022/07/22 00:17:19;;;;;;;8.70;2.00;;;;;;;;;;5020984;28;20211;-64
2022/07/22 00:19:45;;;;;;;7.75;2.08;;;;;;;;;;5019941;28;20227;-64
2022/07/22 00:22:10;;;;;;;8.23;2.00;;;;;;;;;;5024493;28;20215;-64
2022/07/22 00:24:35;;;;;;;11.63;1.92;;;;;;;;;;5025208;28;20207;-64
2022/07/22 00:27:00;;;;;;;8.15;1.88;;;;;;;;;;5023554;28;20222;-64
2022/07/22 00:29:26;;;;;;;9.77;1.73;;;;;;;;;;5019976;28;20686;-64
2022/07/22 00:31:51;;;;;;;6.20;1.63;;;;;;;;;;5024865;28;20216;-64
2022/07/22 00:34:16;;;;;;;6.10;1.60;;;;;;;;;;5023708;28;20219;-64
2022/07/22 00:36:42;;;;;;;9.20;2.15;;;;;;;;;;5025929;28;20686;-64
2022/07/22 00:39:07;;;;;;;8.90;1.75;;;;;;;;;;5029498;28;20227;-64
2022/07/22 00:41:32;;;;;;;10.32;1.73;;;;;;;;;;5024149;28;20294;-64
2022/07/22 00:43:59;;;;;;;9.43;2.00;;;;;;;;;;5024928;28;20208;-65
2022/07/22 00:46:24;;;;;;;6.88;1.90;;;;;;;;;;5026120;28;20222;-65
2022/07/22 00:48:50;;;;;;;8.48;1.90;;;;;;;;;;5043277;28;20211;-64
2022/07/22 00:51:16;;;;;;;7.05;1.90;;;;;;;;;;5043654;28;20674;-64
2022/07/22 00:53:41;;;;;;;8.43;1.73;;;;;;;;;;5043627;28;20729;-64
2022/07/22 00:56:07;;;;;;;7.72;1.80;;;;;;;;;;5043473;28;20701;-64
2022/07/22 00:58:32;;;;;;;6.40;1.80;;;;;;;;;;5026488;28;20786;-64
2022/07/22 01:00:57;;;;;;;8.05;1.75;;;;;;;;;;5043874;28;20792;-64
2022/07/22 01:03:23;;;;;;;9.25;2.10;;;;;;;;;;5043101;28;20265;-64
2022/07/22 01:05:48;;;;;;;8.55;1.92;;;;;;;;;;5043699;28;20211;-64
2022/07/22 01:08:13;;;;;;;9.02;2.10;;;;;;;;;;5021807;28;20214;-64
2022/07/22 01:10:39;;;;;;;9.10;1.80;;;;;;;;;;5024893;28;20265;-65
2022/07/22 01:13:05;;;;;;;7.18;2.10;;;;;;;;;;5023960;28;20215;-65
2022/07/22 01:15:31;;;;;;;9.73;2.03;;;;;;;;;;5013757;28;20294;-65
2022/07/22 01:17:56;;;;;;;7.78;1.90;;;;;;;;;;5024621;28;20299;-65
2022/07/22 01:20:21;;;;;;;6.55;2.13;;;;;;;;;;5022979;28;20231;-64
2022/07/22 01:22:47;;;;;;;9.35;1.85;;;;;;;;;;5023736;28;20212;-64
2022/07/22 01:25:12;;;;;;;8.57;2.13;;;;;;;;;;5042579;28;20211;-65
2022/07/22 01:27:37;;;;;;;5.03;1.70;;;;;;;;;;5026127;28;20689;-64
2022/07/22 01:30:04;;;;;;;5.40;2.10;;;;;;;;;;5030789;28;20277;-64
2022/07/22 01:32:29;;;;;;;10.43;2.35;;;;;;;;;;5024629;28;20747;-64
2022/07/22 01:34:55;;;;;;;9.45;2.42;;;;;;;;;;5043675;28;21026;-64
2022/07/22 01:37:20;;;;;;;6.53;1.92;;;;;;;;;;5041887;28;20552;-65
2022/07/22 01:39:45;;;;;;;5.35;1.95;;;;;;;;;;5023620;28;20233;-65
2022/07/22 01:42:10;;;;;;;6.25;2.40;;;;;;;;;;5024571;28;20207;-65
2022/07/22 01:44:36;;;;;;;6.70;1.80;;;;;;;;;;5024842;28;20211;-65
2022/07/22 01:47:01;;;;;;;4.70;1.92;;;;;;;;;;5025005;28;20290;-65
2022/07/22 01:49:27;;;;;;;7.78;2.00;;;;;;;;;;5043609;28;20693;-65
2022/07/22 01:51:52;;;;;;;8.10;2.13;;;;;;;;;;5041692;28;20203;-64
2022/07/22 01:54:17;;;;;;;7.35;2.30;;;;;;;;;;5025350;28;20211;-64
2022/07/22 01:56:42;;;;;;;5.45;2.08;;;;;;;;;;5042754;28;20582;-64
2022/07/22 01:59:08;;;;;;;7.60;2.40;;;;;;;;;;5041842;28;20238;-64
2022/07/22 02:01:33;;;;;;;6.90;2.28;;;;;;;;;;5043221;28;20207;-65
2022/07/22 02:03:58;;;;;;;6.70;2.17;;;;;;;;;;5042597;28;20364;-64
2022/07/22 02:06:24;;;;;;;7.40;2.35;;;;;;;;;;5041966;28;20271;-65
2022/07/22 02:08:49;;;;;;;3.78;1.90;;;;;;;;;;5021449;28;20567;-64
2022/07/22 02:11:14;;;;;;;8.55;2.42;;;;;;;;;;5022219;28;20743;-64
2022/07/22 02:13:40;;;;;;;6.47;2.30;;;;;;;;;;5022848;28;20203;-65
2022/07/22 02:16:05;;;;;;;9.82;2.47;;;;;;;;;;5025905;28;20770;-64
2022/07/22 02:18:30;;;;;;;6.72;2.50;;;;;;;;;;5022876;28;20631;-65
2022/07/22 02:20:56;;;;;;;6.95;2.40;;;;;;;;;;5022251;28;20673;-65
2022/07/22 02:23:21;;;;;;;6.00;2.58;;;;;;;;;;5022189;28;20219;-64
2022/07/22 02:25:46;;;;;;;8.88;2.67;;;;;;;;;;5023640;28;20203;-64
2022/07/22 02:28:12;;;;;;;6.93;2.50;;;;;;;;;;5041734;28;20265;-64
2022/07/22 02:30:37;;;;;;;8.30;3.00;;;;;;;;;;5026475;28;20970;-64
2022/07/22 02:33:02;;;;;;;9.48;2.70;;;;;;;;;;5022910;28;20213;-64
2022/07/22 02:35:28;;;;;;;8.82;2.90;;;;;;;;;;5042265;28;20679;-64
2022/07/22 02:37:53;;;;;;;8.43;2.90;;;;;;;;;;5037511;28;20321;-64
2022/07/22 02:40:18;;;;;;;8.80;3.10;;;;;;;;;;5020887;28;20715;-64
2022/07/22 02:42:43;;;;;;;7.88;3.60;;;;;;;;;;5022067;28;20207;-64
2022/07/22 02:45:09;;;;;;;8.00;3.35;;;;;;;;;;5040902;28;20222;-65
2022/07/22 02:47:34;;;;;;;11.02;3.25;;;;;;;;;;5024167;28;20211;-64
2022/07/22 02:49:59;;;;;;;7.72;3.35;;;;;;;;;;5041670;28;20214;-64
2022/07/22 02:52:25;;;;;;;11.57;3.40;;;;;;;;;;5041524;28;20245;-64
2022/07/22 02:54:50;;;;;;;11.93;3.42;;;;;;;;;;5040784;28;20240;-64
2022/07/22 02:57:15;;;;;;;9.55;3.47;;;;;;;;;;5041450;28;20211;-65
2022/07/22 02:59:41;;;;;;;8.93;3.33;;;;;;;;;;5041691;28;20219;-64
2022/07/22 03:02:06;;;;;;;10.02;3.72;;;;;;;;;;5040479;28;20222;-65
2022/07/22 03:04:32;;;;;;;10.40;3.60;;;;;;;;;;5041847;28;20203;-65
2022/07/22 03:06:57;;;;;;;10.55;3.50;;;;;;;;;;5037603;28;21167;-64
2022/07/22 03:09:22;;;;;;;7.07;3.42;;;;;;;;;;5020624;28;20584;-64
2022/07/22 03:11:48;;;;;;;9.18;3.80;;;;;;;;;;5022401;28;20215;-64
2022/07/22 03:14:14;;;;;;;8.27;3.38;;;;;;;;;;5040329;28;20226;-64
2022/07/22 03:16:39;;;;;;;10.98;3.40;;;;;;;;;;5021659;28;20212;-64
2022/07/22 03:19:04;;;;;;;9.52;3.22;;;;;;;;;;5022658;28;20227;-64
2022/07/22 03:21:30;;;;;;;9.30;3.25;;;;;;;;;;5040819;28;20631;-64
2022/07/22 03:23:55;;;;;;;8.98;3.15;;;;;;;;;;5040879;28;20260;-65
2022/07/22 03:26:21;;;;;;;9.10;3.25;;;;;;;;;;5040677;28;20261;-64
2022/07/22 03:28:46;;;;;;;9.80;3.17;;;;;;;;;;5039915;28;20223;-64
2022/07/22 03:31:12;;;;;;;8.52;2.95;;;;;;;;;;5021060;28;20278;-64
2022/07/22 03:33:37;;;;;;;10.20;3.25;;;;;;;;;;5022057;28;20567;-64
2022/07/22 03:36:02;;;;;;;10.82;2.97;;;;;;;;;;5020104;28;20774;-64
2022/07/22 03:38:28;;;;;;;9.17;3.67;;;;;;;;;;5004642;28;20421;-62
2022/07/22 03:40:55;;;;;;;11.53;3.73;;;;;;;;;;5040545;28;20408;-65
2022/07/22 03:43:20;;;;;;;9.43;3.30;;;;;;;;;;5039834;28;20663;-63
2022/07/22 03:45:46;;;;;;;8.65;3.35;;;;;;;;;;5023769;28;20207;-78
2022/07/22 03:48:11;;;;;;;12.77;4.30;;;;;;;;;;5030248;28;20789;-78
2022/07/22 03:50:36;;;;;;;8.93;3.47;;;;;;;;;;5022698;28;20208;-77
2022/07/22 03:53:02;;;;;;;11.57;3.70;;;;;;;;;;5022797;28;20359;-74
2022/07/22 03:55:27;;;;;;;13.73;3.58;;;;;;;;;;5006968;28;20202;-77
2022/07/22 03:57:53;;;;;;;11.90;4.15;;;;;;;;;;5007719;28;20698;-73
2022/07/22 04:00:18;;;;;;;7.32;3.28;;;;;;;;;;5022380;28;20238;-79
2022/07/22 04:02:43;;;;;;;8.80;3.35;;;;;;;;;;5011479;28;20203;-79
2022/07/22 04:05:08;;;;;;;11.32;3.15;;;;;;;;;;5025390;28;20226;-75
2022/07/22 04:07:34;;;;;;;11.52;3.75;;;;;;;;;;5026834;28;20215;-75
2022/07/22 04:10:05;;;;;;;12.50;3.03;;;;;;;;;;5009252;28;20210;-79
2022/07/22 04:12:32;;;;;;;8.43;3.20;;;;;;;;;;5023276;28;20239;-75
2022/07/22 04:14:57;;;;;;;10.50;3.35;;;;;;;;;;5012911;28;20196;-81
2022/07/22 04:17:23;;;;;;;8.15;2.20;;;;;;;;;;5030744;28;20663;-80
2022/07/22 04:19:48;;;;;;;9.90;2.80;;;;;;;;;;5008470;28;20353;-82
2022/07/22 04:22:14;;;;;;;8.38;2.65;;;;;;;;;;5004673;28;20211;-78
2022/07/22 04:24:39;;;;;;;11.63;2.63;;;;;;;;;;5020342;28;20216;-79
2022/07/22 04:27:04;;;;;;;8.15;2.58;;;;;;;;;;5023955;28;20574;-73
2022/07/22 04:29:29;;;;;;;10.10;2.15;;;;;;;;;;5050916;28;20223;-79
2022/07/22 04:31:55;;;;;;;9.00;2.45;;;;;;;;;;5059258;28;20225;-81
2022/07/22 04:34:20;;;;;;;8.73;2.40;;;;;;;;;;5043092;28;20230;-71
2022/07/22 04:36:45;;;;;;;8.05;2.40;;;;;;;;;;5054457;28;20199;-74
2022/07/22 04:39:11;;;;;;;7.43;2.42;;;;;;;;;;5049456;28;20368;-86
2022/07/22 04:41:36;;;;;;;5.80;2.20;;;;;;;;;;5033046;28;20670;-80
2022/07/22 04:44:01;;;;;;;9.55;2.40;;;;;;;;;;5049811;28;20215;-77
2022/07/22 04:46:27;;;;;;;12.13;2.85;;;;;;;;;;5032264;28;20223;-79
2022/07/22 04:48:52;;;;;;;9.23;2.80;;;;;;;;;;5051006;28;20211;-81
2022/07/22 04:51:18;;;;;;;12.25;2.63;;;;;;;;;;5050132;28;20215;-80
2022/07/22 04:53:43;;;;;;;6.20;2.00;;;;;;;;;;5031836;28;20712;-83
2022/07/22 04:56:08;;;;;;;8.05;2.35;;;;;;;;;;5032172;28;20302;-82
2022/07/22 04:58:34;;;;;;;6.82;2.50;;;;;;;;;;5050590;28;20709;-80
2022/07/22 05:00:59;;;;;;;8.15;2.63;;;;;;;;;;5049902;28;20218;-81
2022/07/22 05:03:25;;;;;;;8.95;2.30;;;;;;;;;;5050216;28;20211;-83
2022/07/22 05:05:51;;;;;;;8.38;2.20;;;;;;;;;;5050683;28;20207;-81
2022/07/22 05:08:16;;;;;;;6.68;2.40;;;;;;;;;;5052759;28;20207;-86
2022/07/22 05:10:41;;;;;;;10.13;2.40;;;;;;;;;;5053778;28;20733;-79
2022/07/22 05:13:07;;;;;;;7.03;2.30;;;;;;;;;;5035797;28;20729;-77
2022/07/22 05:15:32;;;;;;;9.80;2.03;;;;;;;;;;5053659;28;20199;-77
2022/07/22 05:17:57;;;;;;;6.88;2.00;;;;;;;;;;5053940;28;20320;-78
2022/07/22 05:20:23;;;;;;;7.45;2.20;;;;;;;;;;5035797;28;20297;-79
2022/07/22 05:22:48;;;;;;;7.55;2.35;;;;;;;;;;5053099;28;20210;-79
2022/07/22 05:25:13;;;;;;;5.90;1.80;;;;;;;;;;5018851;28;20207;-78
2022/07/22 05:27:43;;;;;;;7.60;2.25;;;;;;;;;;5053548;28;20215;-79
2022/07/22 05:30:09;;;;;;;11.90;2.50;;;;;;;;;;5040279;28;20218;-80
2022/07/22 05:32:34;;;;;;;8.30;2.40;;;;;;;;;;5053659;28;20563;-78
2022/07/22 05:34:59;;;;;;;8.20;2.10;;;;;;;;;;5035343;28;20230;-78
2022/07/22 05:37:25;;;;;;;7.15;2.25;;;;;;;;;;5053010;28;20239;-81
2022/07/22 05:39:50;;;;;;;13.52;2.53;;;;;;;;;;5035230;28;20745;-78
2022/07/22 05:42:15;;;;;;;7.47;2.20;;;;;;;;;;5052211;28;20221;-78
2022/07/22 05:44:41;;;;;;;7.28;2.17;;;;;;;;;;5035888;28;20204;-78
2022/07/22 05:47:06;;;;;;;8.63;2.10;;;;;;;;;;5053014;28;20215;-78
2022/07/22 05:49:31;;;;;;;8.23;2.40;;;;;;;;;;5052742;28;20276;-80
2022/07/22 05:52:00;;;;;;;7.93;2.40;;;;;;;;;;5053379;28;20207;-80
2022/07/22 05:54:25;;;;;;;6.70;2.10;;;;;;;;;;5052560;28;20221;-78
2022/07/22 05:56:50;;;;;;;6.95;1.98;;;;;;;;;;5052341;28;20302;-81
2022/07/22 05:59:16;;;;;;;6.78;2.05;;;;;;;;;;5052678;28;20721;-83
2022/07/22 06:01:41;;;;;;;12.02;2.10;;;;;;;;;;5035679;28;20207;-79
2022/07/22 06:04:06;;;;;;;8.10;2.30;;;;;;;;;;5051705;28;20211;-79
2022/07/22 06:06:32;;;;;;;8.40;2.35;;;;;;;;;;5053094;28;20215;-79
2022/07/22 06:08:57;;;;;;;10.32;1.95;;;;;;;;;;5034989;28;20231;-77
2022/07/22 06:11:22;;;;;;;6.85;1.92;;;;;;;;;;5051479;28;20651;-77
2022/07/22 06:13:48;;;;;;;10.10;2.15;;;;;;;;;;5053091;28;20215;-78
2022/07/22 06:16:13;;;;;;;7.72;2.00;;;;;;;;;;5034910;28;20267;-77
2022/07/22 06:18:38;;;;;;;8.32;2.08;;;;;;;;;;5052102;28;20207;-80
2022/07/22 06:21:04;;;;;;;6.60;2.17;;;;;;;;;;5052313;28;20226;-79
2022/07/22 06:23:29;;;;;;;8.73;2.13;;;;;;;;;;5052694;28;20218;-78
2022/07/22 06:25:55;;;;;;;8.82;2.30;;;;;;;;;;5051995;28;20654;-77
2022/07/22 06:28:20;;;;;;;10.93;2.20;;;;;;;;;;5051919;28;20246;-82
2022/07/22 06:30:45;;;;;;;11.73;2.33;;;;;;;;;;5052737;28;20207;-84
2022/07/22 06:33:11;;;;;;;7.20;2.53;;;;;;;;;;5033560;28;20223;-80
2022/07/22 06:35:38;;;;;;;7.47;2.08;;;;;;;;;;5035263;28;20682;-78
2022/07/22 06:38:03;;;;;;;7.28;2.05;;;;;;;;;;5051818;28;20203;-79
2022/07/22 06:40:28;;;;;;;8.05;2.35;;;;;;;;;;5033581;28;20215;-79
2022/07/22 06:42:53;;;;;;;6.80;2.00;;;;;;;;;;5052131;28;20261;-80
2022/07/22 06:45:19;;;;;;;10.00;2.20;;;;;;;;;;5051281;28;20223;-81
2022/07/22 06:47:44;;;;;;;7.18;2.20;;;;;;;;;;5052509;28;20256;-82
2022/07/22 06:50:10;;;;;;;6.22;2.17;;;;;;;;;;5051717;28;20215;-82
2022/07/22 06:52:37;;;;;;;8.52;2.13;;;;;;;;;;5033826;28;20550;-77
2022/07/22 06:55:03;;;;;;;9.45;2.20;;;;;;;;;;5051353;28;20219;-76
2022/07/22 06:57:28;;;;;;;8.43;2.60;;;;;;;;;;5051866;28;20285;-84
2022/07/22 06:59:53;;;;;;;8.77;2.10;;;;;;;;;;5051232;28;20369;-83
2022/07/22 07:02:18;;;;;;;7.38;2.15;;;;;;;;;;5051708;28;20215;-78
2022/07/22 07:04:45;;;;;;;8.77;2.88;;;;;;;;;;5051893;28;20207;-80
2022/07/22 07:07:10;;;;;;;11.30;2.30;;;;;;;;;;5050613;28;20257;-84
2022/07/22 07:09:36;;;;;;;6.18;1.80;;;;;;;;;;5051645;28;20207;-79
2022/07/22 07:12:01;;;;;;;6.30;1.83;;;;;;;;;;5051256;28;20219;-75
2022/07/22 07:14:26;;;;;;;8.95;1.90;;;;;;;;;;5050796;28;20221;-78
2022/07/22 07:16:51;;;;;;;7.35;1.90;;;;;;;;;;5034384;28;20207;-77
2022/07/22 07:19:17;;;;;;;5.85;1.58;;;;;;;;;;5033545;28;20235;-75
2022/07/22 07:21:42;;;;;;;6.78;1.90;;;;;;;;;;5050798;28;20215;-77
2022/07/22 07:24:08;;;;;;;10.23;1.83;;;;;;;;;;5033341;28;20219;-76
2022/07/22 07:26:33;;;;;;;7.25;1.77;;;;;;;;;;5051581;28;20301;-75
2022/07/22 07:28:58;;;;;;;10.45;1.90;;;;;;;;;;5050156;28;20206;-75
2022/07/22 07:31:23;;;;;;;9.70;1.83;;;;;;;;;;5033507;28;20651;-76
2022/07/22 07:33:49;;;;;;;8.32;2.03;;;;;;;;;;5034028;28;20215;-78
2022/07/22 07:36:15;;;;;;;8.30;2.10;;;;;;;;;;5050148;28;20298;-77
2022/07/22 07:38:40;;;;;;;6.03;2.10;;;;;;;;;;5051199;28;20206;-80
2022/07/22 07:41:05;;;;;;;7.38;2.00;;;;;;;;;;5032963;28;20226;-73
2022/07/22 07:43:31;;;;;;;8.63;1.92;;;;;;;;;;5032641;28;20215;-78
2022/07/22 07:45:56;;;;;;;6.65;1.52;;;;;;;;;;5051257;28;20210;-78
2022/07/22 07:48:21;;;;;;;7.15;1.52;;;;;;;;;;5051117;28;20214;-77
2022/07/22 07:50:47;;;;;;;7.03;1.50;;;;;;;;;;5050377;28;20234;-76
2022/07/22 07:53:14;;;;;;;6.18;1.52;;;;;;;;;;5033185;28;20207;-77
2022/07/22 07:55:39;;;;;;;6.38;1.60;;;;;;;;;;5032424;28;20257;-79
2022/07/22 07:58:05;;;;;;;6.25;1.58;;;;;;;;;;5032711;28;20211;-78
2022/07/22 08:00:32;;;;;;;6.47;2.22;;;;;;;;;;5051042;28;20702;-78
2022/07/22 08:02:57;;;;;;;9.07;1.85;;;;;;;;;;5050675;28;20633;-77
2022/07/22 08:05:23;;;;;;;8.35;1.90;;;;;;;;;;5032715;28;20715;-76
2022/07/22 08:07:48;;;;;;;9.60;1.98;;;;;;;;;;5051099;28;20211;-75
2022/07/22 08:10:13;;;;;;;7.55;1.80;;;;;;;;;;5031831;28;20207;-76
2022/07/22 08:12:39;;;;;;;9.07;2.08;;;;;;;;;;5051133;28;20211;-77
2022/07/22 08:15:04;;;;;;;12.48;2.10;;;;;;;;;;5050712;28;20195;-76
2022/07/22 08:17:29;;;;;;;9.88;2.10;;;;;;;;;;5050690;28;20207;-79
2022/07/22 08:19:55;;;;;;;7.70;1.90;;;;;;;;;;5051043;28;20215;-77
2022/07/22 08:22:20;;;;;;;10.02;2.20;;;;;;;;;;5050221;28;20222;-74
2022/07/22 08:24:45;;;;;;;6.05;2.20;;;;;;;;;;5050025;28;20576;-76
2022/07/22 08:27:11;;;;;;;8.63;2.20;;;;;;;;;;5050437;28;20217;-76
2022/07/22 08:29:36;;;;;;;9.45;2.00;;;;;;;;;;5050773;28;20215;-75
2022/07/22 08:32:01;;;;;;;8.60;2.05;;;;;;;;;;5049983;28;20203;-74
2022/07/22 08:34:27;;;;;;;5.55;2.17;;;;;;;;;;5033451;28;20299;-74
2022/07/22 08:36:52;;;;;;;9.85;2.17;;;;;;;;;;5050595;28;20302;-74
2022/07/22 08:39:17;;;;;;;17.83;2.63;;;;;;;;;;5049322;28;20310;-74
2022/07/22 08:41:43;;;;;;;9.10;2.40;;;;;;;;;;5052123;28;20224;-73
2022/07/22 08:44:08;;;;;;;6.05;2.08;;;;;;;;;;5054083;28;20303;-72
2022/07/22 08:46:33;;;;;;;9.25;2.10;;;;;;;;;;5054040;28;20210;-73
2022/07/22 08:49:00;;;;;;;10.20;1.70;;;;;;;;;;5054882;28;20207;-73
2022/07/22 08:51:25;;;;;;;10.20;1.60;;;;;;;;;;5054058;28;20207;-73
2022/07/22 08:53:51;;;;;;;11.43;1.92;;;;;;;;;;5053852;28;20688;-74
2022/07/22 08:56:16;;;;;;;10.93;2.03;;;;;;;;;;5053711;28;20670;-77
2022/07/22 08:58:41;;;;;;;7.70;1.70;;;;;;;;;;5054220;28;20234;-75
2022/07/22 09:01:07;;;;;;;20.65;2.08;;;;;;;;;;5052945;28;20294;-76
2022/07/22 09:03:33;;;;;;;7.70;1.67;;;;;;;;;;5054801;28;20203;-77
2022/07/22 09:05:58;;;;;;;9.93;1.90;;;;;;;;;;5053461;28;20298;-75
2022/07/22 09:08:23;;;;;;;7.95;1.85;;;;;;;;;;5053453;28;20199;-73
2022/07/22 09:10:49;;;;;;;5.13;1.60;;;;;;;;;;5054088;28;20214;-75
2022/07/22 09:13:14;;;;;;;7.95;1.40;;;;;;;;;;5052916;28;20207;-75
2022/07/22 09:15:46;;;;;;;5.07;1.65;;;;;;;;;;5053990;28;20218;-75
2022/07/22 09:18:12;;;;;;;10.00;1.90;;;;;;;;;;5053818;28;20572;-74
2022/07/22 09:20:37;;;;;;;10.05;1.52;;;;;;;;;;5053142;28;20215;-76
2022/07/22 09:23:08;;;;;;;7.50;1.55;;;;;;;;;;5053378;28;20207;-73
2022/07/22 09:25:34;;;;;;;8.05;2.00;;;;;;;;;;5035886;28;20199;-75
2022/07/22 09:28:06;;;;;;;6.50;1.77;;;;;;;;;;5035116;28;20222;-79
2022/07/22 09:30:32;;;;;;;6.30;1.60;;;;;;;;;;5035467;28;20557;-75
2022/07/22 09:32:57;;;;;;;10.70;1.60;;;;;;;;;;5053946;28;20241;-74
2022/07/22 09:35:22;;;;;;;6.55;1.65;;;;;;;;;;5052464;28;20222;-76
2022/07/22 09:37:48;;;;;;;6.93;1.83;;;;;;;;;;5053420;28;20286;-75
2022/07/22 09:40:14;;;;;;;6.60;1.80;;;;;;;;;;5053007;28;20231;-75
2022/07/22 09:42:43;;;;;;;6.65;1.55;;;;;;;;;;5052621;28;20214;-75
2022/07/22 09:45:09;;;;;;;8.60;1.80;;;;;;;;;;5053574;28;20207;-75
2022/07/22 09:47:34;;;;;;;6.47;1.70;;;;;;;;;;5053373;28;20277;-74
2022/07/22 09:49:59;;;;;;;6.93;1.88;;;;;;;;;;5052770;28;20226;-73
2022/07/22 09:52:25;;;;;;;6.20;1.70;;;;;;;;;;5052393;28;20207;-74
2022/07/22 09:54:50;;;;;;;6.95;1.77;;;;;;;;;;5035466;28;20333;-76
2022/07/22 09:57:15;;;;;;;5.60;1.60;;;;;;;;;;5034155;28;20599;-75
2022/07/22 09:59:41;;;;;;;8.68;1.80;;;;;;;;;;5053422;28;20277;-76
2022/07/22 10:02:06;;;;;;;7.90;1.60;;;;;;;;;;5052658;28;20218;-73
2022/07/22 10:04:31;;;;;;;6.82;1.50;;;;;;;;;;5034752;28;20210;-78
2022/07/22 10:06:57;;;;;;;9.93;2.05;;;;;;;;;;5052921;28;20773;-76
2022/07/22 10:09:22;;;;;;;4.53;1.70;;;;;;;;;;5033904;28;20211;-75
2022/07/22 10:11:47;;;;;;;5.53;1.73;;;;;;;;;;5052885;28;20210;-75
2022/07/22 10:14:13;;;;;;;8.07;1.55;;;;;;;;;;5034844;28;20257;-74
2022/07/22 10:16:38;;;;;;;5.20;1.77;;;;;;;;;;5052081;28;20213;-77
2022/07/22 10:19:03;;;;;;;8.48;1.88;;;;;;;;;;5018311;28;20219;-74
2022/07/22 10:21:33;;;;;;;5.70;1.70;;;;;;;;;;5052521;28;20203;-74
2022/07/22 10:24:06;;;;;;;7.68;2.15;;;;;;;;;;5051913;28;20337;-74
2022/07/22 10:26:47;;;;;;;3.85;1.75;;;;;;;;;;5027216;28;20569;-77
2022/07/22 10:29:28;;;;;;;7.05;1.52;;;;;;;;;;5052531;28;20227;-79
2022/07/22 10:32:12;;;;;;;4.47;1.48;;;;;;;;;;5033892;28;20281;-76
2022/07/22 10:34:37;;;;;;;3.80;1.48;;;;;;;;;;5052115;28;20218;-78
2022/07/22 10:37:03;;;;;;;8.27;1.70;;;;;;;;;;5052204;28;20207;-76
2022/07/22 10:39:28;;;;;;;5.90;1.60;;;;;;;;;;5051696;28;20242;-80
2022/07/22 10:41:53;;;;;;;5.07;1.48;;;;;;;;;;5034921;28;20207;-77
2022/07/22 10:44:37;;;;;;;4.25;1.55;;;;;;;;;;5051989;28;20215;-75
2022/07/22 10:47:02;;;;;;;7.80;1.92;;;;;;;;;;5051814;28;20210;-76
2022/07/22 10:49:28;;;;;;;8.20;1.67;;;;;;;;;;5052161;28;20543;-76
2022/07/22 10:52:22;;;;;;;6.30;1.83;;;;;;;;;;5051667;28;20211;-76
2022/07/22 10:55:15;;;;;;;5.88;1.38;;;;;;;;;;5051934;28;20269;-82
2022/07/22 10:57:40;;;;;;;5.07;1.30;;;;;;;;;;5051674;28;20214;-75
2022/07/22 11:00:06;;;;;;;7.95;1.33;;;;;;;;;;5050773;28;20230;-74
2022/07/22 11:02:32;;;;;;;5.18;1.40;;;;;;;;;;5052185;28;20207;-75
2022/07/22 11:04:58;;;;;;;7.05;1.40;;;;;;;;;;5033811;28;20218;-82
2022/07/22 11:07:23;;;;;;;6.63;1.50;;;;;;;;;;5050526;28;20203;-79
2022/07/22 11:09:48;;;;;;;7.18;1.42;;;;;;;;;;5051745;28;20211;-77
2022/07/22 11:12:13;;;;;;;4.30;1.27;;;;;;;;;;5051007;28;20237;-75
2022/07/22 11:14:39;;;;;;;4.53;1.55;;;;;;;;;;5033521;28;20272;-77
2022/07/22 11:17:10;;;;;;;3.38;1.58;;;;;;;;;;5051567;28;20286;-74
2022/07/22 11:19:37;;;;;;;4.85;1.60;;;;;;;;;;5051092;28;20212;-77
2022/07/22 11:22:04;;;;;;;6.57;1.67;;;;;;;;;;5051058;28;20211;-76
2022/07/22 11:24:29;;;;;;;5.45;1.50;;;;;;;;;;5033864;28;20211;-77
2022/07/22 11:26:55;;;;;;;4.88;1.60;;;;;;;;;;5050629;28;20867;-74
2022/07/22 11:29:26;;;;;;;5.93;2.17;;;;;;;;;;5051298;28;20670;-73
2022/07/22 11:31:52;;;;;;;3.03;1.40;;;;;;;;;;5051677;28;20685;-74
2022/07/22 11:34:17;;;;;;;6.50;1.40;;;;;;;;;;5050286;28;20214;-75
2022/07/22 11:36:43;;;;;;;7.80;1.67;;;;;;;;;;5051400;28;20202;-79
2022/07/22 11:39:09;;;;;;;10.93;2.28;;;;;;;;;;5050510;28;20227;-74
2022/07/22 11:41:34;;;;;;;5.25;1.48;;;;;;;;;;5050531;28;20214;-77
2022/07/22 11:43:59;;;;;;;8.38;1.50;;;;;;;;;;5051440;28;20742;-77
2022/07/22 11:46:25;;;;;;;2.97;1.65;;;;;;;;;;5051171;28;20219;-76
2022/07/22 11:48:50;;;;;;;6.60;1.83;;;;;;;;;;5050693;28;20268;-74
2022/07/22 11:51:16;;;;;;;5.70;1.30;;;;;;;;;;5050769;28;20207;-77
2022/07/22 11:53:41;;;;;;;5.03;1.30;;;;;;;;;;5051141;28;20291;-75
2022/07/22 11:56:07;;;;;;;4.90;1.60;;;;;;;;;;5049699;28;20222;-72
2022/07/22 11:58:33;;;;;;;3.65;1.58;;;;;;;;;;5051071;28;20231;-72
2022/07/22 12:00:58;;;;;;;3.97;1.30;;;;;;;;;;5051520;28;20625;-73
2022/07/22 12:03:24;;;;;;;4.20;1.45;;;;;;;;;;5050154;28;20214;-77
2022/07/22 12:05:49;;;;;;;4.53;1.40;;;;;;;;;;5033360;28;20199;-75
2022/07/22 12:08:14;;;;;;;4.10;1.35;;;;;;;;;;5050544;28;20218;-74
2022/07/22 12:10:40;;;;;;;5.65;1.33;;;;;;;;;;5050074;28;20685;-80
2022/07/22 12:13:05;;;;;;;4.75;1.25;;;;;;;;;;5050464;28;20203;-78
2022/07/22 12:15:30;;;;;;;3.35;1.25;;;;;;;;;;5052721;28;20225;-86
2022/07/22 12:18:13;;;;;;;1.80;1.17;;;;;;;;;;5054600;28;20583;-81
2022/07/22 12:20:43;;;;;;;6.10;1.38;;;;;;;;;;5054476;28;20708;-77
2022/07/22 12:23:08;;;;;;;4.53;1.30;;;;;;;;;;5053651;28;20276;-73
2022/07/22 12:25:44;;;;;;;15.70;1.77;;;;;;;;;;5037247;28;20250;-73
2022/07/22 12:28:10;;;;;;;4.20;1.23;;;;;;;;;;5036746;28;20627;-71
2022/07/22 12:30:35;;;;;;;3.65;1.20;;;;;;;;;;5036707;28;20210;-73
2022/07/22 12:33:01;;;;;;;3.28;1.20;;;;;;;;;;5054387;28;20215;-70
2022/07/22 12:35:27;;;;;;;7.00;1.40;;;;;;;;;;5036658;28;20215;-75
2022/07/22 12:37:52;;;;;;;6.68;2.10;;;;;;;;;;5036042;28;20218;-76
2022/07/22 12:40:18;;;;;;;8.45;1.85;;;;;;;;;;5054267;28;20248;-73
2022/07/22 12:42:44;;;;;;;3.38;1.10;;;;;;;;;;5054778;28;20205;-75
2022/07/22 12:45:10;;;;;;;3.63;1.30;;;;;;;;;;5053672;28;20215;-73
2022/07/22 12:47:43;;;;;;;3.78;1.27;;;;;;;;;;5054615;28;20202;-73
2022/07/22 12:50:19;;;;;;;3.95;1.17;;;;;;;;;;5036353;28;20268;-73
2022/07/22 12:52:44;;;;;;;5.22;1.70;;;;;;;;;;5053849;28;20218;-71
2022/07/22 12:55:10;;;;;;;4.97;1.40;;;;;;;;;;5054268;28;20207;-75
2022/07/22 12:57:35;;;;;;;4.15;1.70;;;;;;;;;;5054572;28;20571;-77
2022/07/22 13:00:00;;;;;;;4.88;1.55;;;;;;;;;;5053525;28;20604;-77
2022/07/22 13:02:25;;;;;;;5.85;1.80;;;;;;;;;;5041010;28;20682;-73
2022/07/22 13:04:51;;;;;;;8.25;2.20;;;;;;;;;;5032303;28;20207;-76
2022/07/22 13:07:16;;;;;;;6.93;2.15;;;;;;;;;;5038646;28;20207;-76
2022/07/22 13:09:41;;;;;;;6.22;1.90;;;;;;;;;;5040812;28;20203;-74
2022/07/22 13:12:07;;;;;;;6.95;2.20;;;;;;;;;;5045472;28;20761;-73
2022/07/22 13:14:32;;;;;;;6.30;1.98;;;;;;;;;;5044715;28;20210;-74
2022/07/22 13:16:57;;;;;;;6.32;2.33;;;;;;;;;;5028569;28;20216;-73
2022/07/22 13:19:23;;;;;;;5.13;1.98;;;;;;;;;;5028357;28;20849;-74
2022/07/22 13:21:48;;;;;;;5.07;1.90;;;;;;;;;;5047541;28;20258;-72
2022/07/22 13:24:14;;;;;;;6.95;1.90;;;;;;;;;;5046963;28;20733;-73
2022/07/22 13:26:39;;;;;;;6.57;1.90;;;;;;;;;;5040732;28;20511;-73
2022/07/22 13:29:05;;;;;;;5.18;2.03;;;;;;;;;;5034995;28;20616;-73
2022/07/22 13:31:30;;;;;;;6.57;1.92;;;;;;;;;;5021055;28;20212;-75
2022/07/22 13:33:56;;;;;;;6.75;1.98;;;;;;;;;;5025190;28;20257;-77
2022/07/22 13:36:22;;;;;;;4.70;1.80;;;;;;;;;;5028632;28;20423;-75
2022/07/22 13:38:48;;;;;;;4.97;1.90;;;;;;;;;;5037684;28;20216;-73
2022/07/22 13:41:19;;;;;;;2.95;1.73;;;;;;;;;;5046136;28;20221;-75
2022/07/22 13:43:45;;;;;;;6.45;1.92;;;;;;;;;;5047288;28;20207;-78
2022/07/22 13:46:10;;;;;;;4.20;1.50;;;;;;;;;;5046320;28;20232;-74
2022/07/22 13:48:35;;;;;;;7.82;2.20;;;;;;;;;;5042186;28;20310;-75
2022/07/22 13:51:01;;;;;;;3.25;1.42;;;;;;;;;;5020920;28;20649;-77
2022/07/22 13:53:26;;;;;;;4.53;1.98;;;;;;;;;;5038758;28;20808;-76
2022/07/22 13:55:52;;;;;;;5.78;1.73;;;;;;;;;;5042699;28;20501;-75
2022/07/22 13:58:17;;;;;;;5.25;1.75;;;;;;;;;;5046531;28;20312;-75
2022/07/22 14:00:42;;;;;;;7.97;2.00;;;;;;;;;;5046743;28;20313;-75
2022/07/22 14:03:08;;;;;;;7.13;1.85;;;;;;;;;;5045421;28;20294;-74
2022/07/22 14:05:33;;;;;;;6.18;1.77;;;;;;;;;;5032544;28;20735;-74
2022/07/22 14:07:59;;;;;;;5.28;1.67;;;;;;;;;;5052693;28;20602;-74
2022/07/22 14:10:24;;;;;;;6.57;1.98;;;;;;;;;;5051204;28;20265;-74
2022/07/22 14:12:50;;;;;;;2.67;1.80;;;;;;;;;;5033407;28;20215;-73
2022/07/22 14:15:15;;;;;;;10.18;2.00;;;;;;;;;;5041774;28;20214;-74
2022/07/22 14:17:40;;;;;;;5.97;2.05;;;;;;;;;;5052229;28;20241;-73
2022/07/22 14:20:07;;;;;;;4.90;1.75;;;;;;;;;;5051853;28;20265;-72
2022/07/22 14:22:33;;;;;;;8.07;2.05;;;;;;;;;;5051929;28;20291;-74
2022/07/22 14:24:58;;;;;;;5.22;1.67;;;;;;;;;;5035343;28;20298;-75
2022/07/22 14:27:23;;;;;;;7.57;2.10;;;;;;;;;;5052555;28;20611;-76
2022/07/22 14:29:49;;;;;;;5.75;2.03;;;;;;;;;;5051839;28;20734;-74
2022/07/22 14:32:14;;;;;;;3.08;1.60;;;;;;;;;;5051918;28;20217;-73